Time;durP1;ratioP1;P1;durP2;ratioP2;P2;SDS_P1;SDS_P2;PMS_P1;PMS_P2;Temp;Humidity;BMP_temperature;BMP_pressure;BME280_temperature;BME280_humidity;BME280_pressure;Samples;Min_cycle;Max_cycle;Signal;HPM_P1;HPM_P2
2023/09/16 00:01:52;;;;;;;;;;;;;;;15.20;85.82;101385.38;5036413;28;1329;-81
2023/09/16 00:04:17;;;;;;;;;;;;;;;15.20;85.95;101388.00;5034384;28;1037;-81
2023/09/16 00:06:42;;;;;;;;;;;;;;;15.17;85.77;101388.25;5032625;28;1906;-80
2023/09/16 00:09:08;;;;;;;;;;;;;;;15.16;86.17;101391.03;5016504;28;1171;-81
2023/09/16 00:11:33;;;;;;;;;;;;;;;15.12;86.30;101380.84;5015825;28;1236;-79
2023/09/16 00:13:58;;;;;;;;;;;;;;;15.11;86.21;101379.19;5031160;28;1349;-79
2023/09/16 00:16:24;;;;;;;;;;;;;;;15.10;86.61;101379.34;5029055;28;1280;-81
2023/09/16 00:18:49;;;;;;;;;;;;;;;15.09;86.28;101369.88;5029219;28;1045;-81
2023/09/16 00:21:16;;;;;;;;;;;;;;;15.06;86.37;101373.56;5030429;28;1200;-78
2023/09/16 00:23:42;;;;;;;;;;;;;;;15.04;86.37;101374.69;5009270;28;1290;-79
2023/09/16 00:26:07;;;;;;;;;;;;;;;15.02;86.67;101373.97;5031560;28;1894;-80
2023/09/16 00:28:35;;;;;;;;;;;;;;;15.02;86.70;101366.16;5022746;28;980;-80
2023/09/16 00:31:01;;;;;;;;;;;;;;;15.01;87.08;101372.34;5028203;28;1075;-81
2023/09/16 00:33:26;;;;;;;;;;;;;;;15.01;87.22;101367.94;5030532;28;1110;-81
2023/09/16 00:35:51;;;;;;;;;;;;;;;15.00;87.18;101365.47;5025258;28;1289;-81
2023/09/16 00:38:17;;;;;;;;;;;;;;;15.01;87.09;101372.34;5039319;28;1138;-81
2023/09/16 00:40:42;;;;;;;;;;;;;;;14.97;87.27;101371.81;5036636;28;1511;-81
2023/09/16 00:43:07;;;;;;;;;;;;;;;14.95;87.29;101367.69;5019521;28;1347;-80
2023/09/16 00:45:33;;;;;;;;;;;;;;;14.96;87.63;101364.09;5020503;28;1901;-80
2023/09/16 00:47:58;;;;;;;;;;;;;;;14.93;87.41;101372.22;5020338;28;1505;-78
2023/09/16 00:50:23;;;;;;;;;;;;;;;14.92;88.12;101362.75;5018772;28;1412;-81
2023/09/16 00:52:53;;;;;;;;;;;;;;;14.89;88.10;101363.84;5030195;28;1281;-80
2023/09/16 00:55:19;;;;;;;;;;;;;;;14.88;88.11;101363.03;5028418;28;1531;-81
2023/09/16 00:57:46;;;;;;;;;;;;;;;14.88;87.97;101368.25;5027749;28;1194;-76
2023/09/16 01:00:11;;;;;;;;;;;;;;;14.87;88.06;101366.59;5036262;28;1276;-76
2023/09/16 01:02:37;;;;;;;;;;;;;;;14.85;87.97;101363.31;5018391;28;1278;-76
2023/09/16 01:05:04;;;;;;;;;;;;;;;14.85;88.27;101362.47;5032905;28;1209;-76
2023/09/16 01:07:30;;;;;;;;;;;;;;;14.84;88.06;101361.63;5034057;28;1886;-75
2023/09/16 01:09:55;;;;;;;;;;;;;;;14.81;88.18;101361.94;5032700;28;1190;-75
2023/09/16 01:12:20;;;;;;;;;;;;;;;14.79;88.17;101363.84;5032164;28;1214;-76
2023/09/16 01:14:46;;;;;;;;;;;;;;;14.76;88.35;101358.91;5027867;28;1431;-77
2023/09/16 01:17:17;;;;;;;;;;;;;;;14.75;88.20;101357.28;5028556;28;1719;-75
2023/09/16 01:19:59;;;;;;;;;;;;;;;14.74;88.18;101355.63;5027582;28;1059;-76
2023/09/16 01:22:24;;;;;;;;;;;;;;;14.74;88.37;101353.03;5024990;28;1139;-75
2023/09/16 01:24:52;;;;;;;;;;;;;;;14.74;88.34;101350.41;5020856;28;1041;-76
2023/09/16 01:27:18;;;;;;;;;;;;;;;14.71;88.50;101352.47;5028439;28;1973;-76
2023/09/16 01:29:44;;;;;;;;;;;;;;;14.67;88.46;101344.06;5028459;28;1130;-76
2023/09/16 01:32:10;;;;;;;;;;;;;;;14.63;88.81;101337.50;5025856;28;1064;-76
2023/09/16 01:34:47;;;;;;;;;;;;;;;14.59;88.73;101336.13;5022232;28;1149;-77
2023/09/16 01:37:18;;;;;;;;;;;;;;;14.57;88.87;101340.66;5003621;28;1120;-75
2023/09/16 01:39:48;;;;;;;;;;;;;;;14.57;89.25;101343.28;5017304;28;1092;-75
2023/09/16 01:42:15;;;;;;;;;;;;;;;14.56;89.31;101342.44;5029156;28;1232;-75
2023/09/16 01:44:40;;;;;;;;;;;;;;;14.57;89.11;101338.06;5012179;28;1151;-77
2023/09/16 01:47:07;;;;;;;;;;;;;;;14.57;89.23;101330.22;5036671;28;1890;-75
2023/09/16 01:49:32;;;;;;;;;;;;;;;14.57;89.38;101327.63;5029384;28;981;-75
2023/09/16 01:51:57;;;;;;;;;;;;;;;14.54;89.24;101333.09;5029674;28;1410;-76
2023/09/16 01:54:22;;;;;;;;;;;;;;;14.52;89.37;101332.44;5022998;28;1387;-76
2023/09/16 01:56:47;;;;;;;;;;;;;;;14.48;89.55;101331.03;5015205;28;1346;-76
2023/09/16 01:59:13;;;;;;;;;;;;;;;14.45;89.12;101333.88;5035120;28;1095;-76
2023/09/16 02:01:38;;;;;;;;;;;;;;;14.41;89.76;101332.53;5024749;28;1263;-75
2023/09/16 02:04:03;;;;;;;;;;;;;;;14.37;90.04;101339.81;5032871;28;1299;-77
2023/09/16 02:06:28;;;;;;;;;;;;;;;14.36;90.31;101340.75;5030006;28;1969;-76
2023/09/16 02:08:53;;;;;;;;;;;;;;;14.33;90.43;101349.69;5029312;28;1225;-75
2023/09/16 02:11:19;;;;;;;;;;;;;;;14.32;90.58;101340.22;5032132;28;1222;-75
2023/09/16 02:13:44;;;;;;;;;;;;;;;14.31;90.33;101333.34;5009464;28;1580;-76
2023/09/16 02:16:12;;;;;;;;;;;;;;;14.33;90.34;101341.84;5029159;28;1221;-75
2023/09/16 02:18:37;;;;;;;;;;;;;;;14.34;90.48;101338.31;5012876;28;1249;-76
2023/09/16 02:21:02;;;;;;;;;;;;;;;14.34;90.21;101337.47;5025451;28;952;-75
2023/09/16 02:23:27;;;;;;;;;;;;;;;14.32;90.28;101334.97;5023835;28;1244;-76
2023/09/16 02:25:53;;;;;;;;;;;;;;;14.31;90.81;101338.56;5030718;28;1898;-75
2023/09/16 02:28:18;;;;;;;;;;;;;;;14.31;90.48;101335.94;5026731;28;1242;-75
2023/09/16 02:30:43;;;;;;;;;;;;;;;14.32;90.73;101334.97;5028583;28;1272;-76
2023/09/16 02:33:08;;;;;;;;;;;;;;;14.33;90.69;101335.81;5030075;28;1261;-75
2023/09/16 02:35:33;;;;;;;;;;;;;;;14.32;90.87;101329.78;5023377;28;1245;-75
2023/09/16 02:38:02;;;;;;;;;;;;;;;14.32;90.77;101334.97;5027808;28;1237;-76
2023/09/16 02:40:27;;;;;;;;;;;;;;;14.32;90.99;101327.16;5019190;28;1068;-75
2023/09/16 02:42:53;;;;;;;;;;;;;;;14.31;91.25;101333.34;5007458;28;1559;-75
2023/09/16 02:45:18;;;;;;;;;;;;;;;14.32;91.59;101334.97;5026047;28;1242;-75
2023/09/16 02:47:43;;;;;;;;;;;;;;;14.33;91.48;101331.41;5023162;28;1956;-75
2023/09/16 02:50:08;;;;;;;;;;;;;;;14.33;91.51;101320.97;5011283;28;1451;-75
2023/09/16 02:52:34;;;;;;;;;;;;;;;14.33;91.49;101326.19;5028958;28;1276;-75
2023/09/16 02:54:59;;;;;;;;;;;;;;;14.31;91.45;101322.09;5018663;28;1248;-75
2023/09/16 02:57:24;;;;;;;;;;;;;;;14.30;91.84;101321.25;5030999;28;1511;-75
2023/09/16 02:59:49;;;;;;;;;;;;;;;14.29;92.00;101324.84;5009992;28;1241;-75
2023/09/16 03:02:15;;;;;;;;;;;;;;;14.29;92.15;101324.84;5023915;28;1543;-75
2023/09/16 03:04:41;;;;;;;;;;;;;;;14.30;92.16;101325.66;5015722;28;1359;-75
2023/09/16 03:07:06;;;;;;;;;;;;;;;14.30;92.28;101326.47;5039759;28;1902;-75
2023/09/16 03:09:31;;;;;;;;;;;;;;;14.28;92.15;101328.41;5037099;28;1144;-75
2023/09/16 03:11:57;;;;;;;;;;;;;;;14.27;92.39;101329.34;5040179;28;1547;-75
2023/09/16 03:14:22;;;;;;;;;;;;;;;14.27;92.21;101325.91;5034807;28;1241;-75
2023/09/16 03:16:47;;;;;;;;;;;;;;;14.26;92.06;101325.09;5035099;28;1425;-75
2023/09/16 03:19:16;;;;;;;;;;;;;;;14.25;92.34;101313.03;5029959;28;1355;-75
2023/09/16 03:21:41;;;;;;;;;;;;;;;14.24;92.60;101321.00;5019225;28;1305;-75
2023/09/16 03:24:06;;;;;;;;;;;;;;;14.21;92.42;101310.81;5017452;28;1218;-75
2023/09/16 03:26:31;;;;;;;;;;;;;;;14.21;92.59;101311.63;5031026;28;1910;-75
2023/09/16 03:28:57;;;;;;;;;;;;;;;14.18;92.75;101311.94;5033754;28;1103;-76
2023/09/16 03:31:22;;;;;;;;;;;;;;;14.16;93.23;101313.81;5029564;28;1061;-76
2023/09/16 03:33:47;;;;;;;;;;;;;;;14.14;93.04;101300.09;5031706;28;1252;-75
2023/09/16 03:36:12;;;;;;;;;;;;;;;14.12;93.19;101296.81;5008961;28;1378;-76
2023/09/16 03:38:44;;;;;;;;;;;;;;;14.13;93.18;101292.44;5029482;28;1320;-76
2023/09/16 03:41:10;;;;;;;;;;;;;;;14.13;93.29;101298.47;5031819;28;1064;-75
2023/09/16 03:43:35;;;;;;;;;;;;;;;14.12;93.14;101289.00;5011798;28;1307;-75
2023/09/16 03:46:00;;;;;;;;;;;;;;;14.09;93.50;101297.09;5027130;28;1898;-77
2023/09/16 03:48:25;;;;;;;;;;;;;;;14.08;93.70;101285.81;5029158;28;1255;-76
2023/09/16 03:50:50;;;;;;;;;;;;;;;14.06;93.74;101292.16;5009836;28;1412;-75
2023/09/16 03:53:18;;;;;;;;;;;;;;;14.07;93.98;101283.34;5028220;28;1256;-76
2023/09/16 03:55:43;;;;;;;;;;;;;;;14.06;93.88;101287.75;5026645;28;1295;-75
2023/09/16 03:58:08;;;;;;;;;;;;;;;14.09;94.13;101291.88;5015487;28;1389;-75
2023/09/16 04:00:33;;;;;;;;;;;;;;;14.11;93.96;101289.97;5024454;28;1237;-75
2023/09/16 04:02:59;;;;;;;;;;;;;;;14.12;93.88;101285.56;5025763;28;1292;-77
2023/09/16 04:05:24;;;;;;;;;;;;;;;14.08;94.06;101279.78;5042845;28;1260;-77
2023/09/16 04:07:49;;;;;;;;;;;;;;;14.06;94.01;101284.31;5012019;28;1882;-76
2023/09/16 04:10:14;;;;;;;;;;;;;;;14.02;93.94;101285.56;5042502;28;1088;-75
2023/09/16 04:12:39;;;;;;;;;;;;;;;14.03;94.21;101287.19;5036491;28;1287;-75
2023/09/16 04:15:05;;;;;;;;;;;;;;;14.00;94.14;101288.31;5037720;28;1288;-76
2023/09/16 04:17:30;;;;;;;;;;;;;;;13.99;94.11;101293.63;5019267;28;1254;-76
2023/09/16 04:19:56;;;;;;;;;;;;;;;13.96;93.87;101286.09;5019151;28;1213;-75
2023/09/16 04:22:21;;;;;;;;;;;;;;;13.92;94.10;101289.94;5030533;28;1264;-76
2023/09/16 04:24:46;;;;;;;;;;;;;;;13.91;94.43;101288.28;5041047;28;1496;-76
2023/09/16 04:27:11;;;;;;;;;;;;;;;13.91;94.50;101288.28;5029832;28;1965;-75
2023/09/16 04:29:36;;;;;;;;;;;;;;;13.90;94.47;101289.25;5019856;28;1305;-76
2023/09/16 04:32:02;;;;;;;;;;;;;;;13.89;94.55;101283.22;5030603;28;1079;-76
2023/09/16 04:34:27;;;;;;;;;;;;;;;13.87;94.71;101287.72;5030285;28;1507;-75
2023/09/16 04:36:54;;;;;;;;;;;;;;;13.87;94.85;101286.91;5029261;28;1202;-76
2023/09/16 04:39:23;;;;;;;;;;;;;;;13.87;94.99;101286.91;5028924;28;1352;-76
2023/09/16 04:41:50;;;;;;;;;;;;;;;13.85;95.32;101283.59;5014925;28;1192;-76
2023/09/16 04:44:16;;;;;;;;;;;;;;;13.82;95.42;101288.16;5013981;28;1241;-75
2023/09/16 04:46:41;;;;;;;;;;;;;;;13.82;95.33;101285.53;5026163;28;1902;-76
2023/09/16 04:49:06;;;;;;;;;;;;;;;13.83;95.08;101286.34;5030801;28;1157;-76
2023/09/16 04:51:33;;;;;;;;;;;;;;;13.80;95.05;101287.44;5010790;28;1362;-75
2023/09/16 04:53:58;;;;;;;;;;;;;;;13.80;95.30;101287.44;5024513;28;1274;-76
2023/09/16 04:56:24;;;;;;;;;;;;;;;13.80;95.18;101292.66;5020898;28;1510;-78
2023/09/16 04:58:49;;;;;;;;;;;;;;;13.78;95.31;101281.53;5024183;28;1268;-75
2023/09/16 05:01:14;;;;;;;;;;;;;;;13.78;95.36;101278.94;5023338;28;1201;-77
2023/09/16 05:03:40;;;;;;;;;;;;;;;13.74;95.30;101282.75;5033548;28;1514;-76
2023/09/16 05:06:05;;;;;;;;;;;;;;;13.75;95.52;101286.19;5011619;28;1887;-76
2023/09/16 05:08:30;;;;;;;;;;;;;;;13.71;95.49;101285.66;5024572;28;1292;-76
2023/09/16 05:10:55;;;;;;;;;;;;;;;13.68;95.38;101293.72;5034222;28;1241;-76
2023/09/16 05:13:21;;;;;;;;;;;;;;;13.69;95.77;101284.94;5039616;28;1066;-76
2023/09/16 05:15:47;;;;;;;;;;;;;;;13.70;95.89;101286.59;5035885;28;1028;-75
2023/09/16 05:18:13;;;;;;;;;;;;;;;13.71;95.82;101287.44;5027788;28;1197;-75
2023/09/16 05:20:38;;;;;;;;;;;;;;;13.70;96.01;101275.34;5031168;28;1419;-76
2023/09/16 05:23:03;;;;;;;;;;;;;;;13.70;96.13;101286.59;5034110;28;1363;-76
2023/09/16 05:25:28;;;;;;;;;;;;;;;13.68;96.40;101283.31;5026895;28;1054;-75
2023/09/16 05:27:54;;;;;;;;;;;;;;;13.69;96.28;101284.94;5023271;28;1964;-77
2023/09/16 05:30:19;;;;;;;;;;;;;;;13.69;96.59;101284.94;5027602;28;1067;-75
2023/09/16 05:32:44;;;;;;;;;;;;;;;13.71;96.40;101283.03;5011657;28;1282;-76
2023/09/16 05:35:09;;;;;;;;;;;;;;;13.69;96.64;101284.94;5030353;28;1171;-75
2023/09/16 05:37:34;;;;;;;;;;;;;;;13.68;96.68;101288.50;5030035;28;1211;-75
2023/09/16 05:39:59;;;;;;;;;;;;;;;13.67;96.76;101292.09;5016781;28;1168;-78
2023/09/16 05:42:25;;;;;;;;;;;;;;;13.67;97.00;101283.44;5027394;28;996;-76
2023/09/16 05:44:50;;;;;;;;;;;;;;;13.67;97.10;101291.25;5035648;28;1114;-76
2023/09/16 05:47:17;;;;;;;;;;;;;;;13.67;97.12;101286.88;5030342;28;1902;-75
2023/09/16 05:49:42;;;;;;;;;;;;;;;13.69;97.10;101290.16;5030202;28;1575;-76
2023/09/16 05:52:07;;;;;;;;;;;;;;;13.70;97.17;101290.97;5029847;28;1488;-75
2023/09/16 05:54:32;;;;;;;;;;;;;;;13.70;97.38;101291.81;5026650;28;1523;-75
2023/09/16 05:56:58;;;;;;;;;;;;;;;13.72;97.37;101289.91;5029282;28;1254;-76
2023/09/16 05:59:23;;;;;;;;;;;;;;;13.74;97.51;101292.38;5024574;28;1236;-77
2023/09/16 06:01:48;;;;;;;;;;;;;;;13.77;97.57;101292.13;5028188;28;1245;-76
2023/09/16 06:04:13;;;;;;;;;;;;;;;13.78;97.78;101289.38;5020502;28;1523;-76
2023/09/16 06:06:38;;;;;;;;;;;;;;;13.81;98.00;101294.28;5025085;28;1955;-75
2023/09/16 06:09:04;;;;;;;;;;;;;;;13.81;98.45;101296.91;5031337;28;1265;-78
2023/09/16 06:11:29;;;;;;;;;;;;;;;13.86;98.27;101306.13;5033636;28;1284;-75
2023/09/16 06:13:55;;;;;;;;;;;;;;;13.88;98.26;101301.56;5033463;28;1198;-75
2023/09/16 06:16:20;;;;;;;;;;;;;;;13.91;98.33;101303.94;5031107;28;1426;-77
2023/09/16 06:18:45;;;;;;;;;;;;;;;13.95;98.17;101305.31;5031737;28;1304;-76
2023/09/16 06:21:11;;;;;;;;;;;;;;;14.00;98.37;101309.16;5024948;28;1550;-76
2023/09/16 06:23:36;;;;;;;;;;;;;;;14.05;98.81;101311.38;5023680;28;1253;-76
2023/09/16 06:26:01;;;;;;;;;;;;;;;14.09;98.96;101308.34;5016822;28;1957;-76
2023/09/16 06:28:26;;;;;;;;;;;;;;;14.15;98.81;101304.34;5028005;28;1274;-77
2023/09/16 06:30:51;;;;;;;;;;;;;;;14.20;99.06;101310.00;5036835;28;1504;-75
2023/09/16 06:33:17;;;;;;;;;;;;;;;14.26;98.97;101309.44;5034309;28;1285;-76
2023/09/16 06:35:42;;;;;;;;;;;;;;;14.32;99.04;101297.63;5031943;28;1283;-76
2023/09/16 06:38:07;;;;;;;;;;;;;;;14.38;98.94;101312.75;5035873;28;1412;-76
2023/09/16 06:40:32;;;;;;;;;;;;;;;14.44;99.13;101295.69;5032445;28;1244;-76
2023/09/16 06:42:57;;;;;;;;;;;;;;;14.48;99.06;101297.13;5039265;28;1174;-76
2023/09/16 06:45:22;;;;;;;;;;;;;;;14.55;99.43;101304.25;5017116;28;1598;-76
2023/09/16 06:47:48;;;;;;;;;;;;;;;14.63;99.33;101298.34;5035504;28;1910;-75
2023/09/16 06:50:13;;;;;;;;;;;;;;;14.70;98.86;101307.25;5012120;28;1285;-75
2023/09/16 06:52:38;;;;;;;;;;;;;;;14.78;99.75;101315.19;5018220;28;1292;-76
2023/09/16 06:55:07;;;;;;;;;;;;;;;14.84;99.54;101309.41;5032648;28;1248;-77
2023/09/16 06:57:32;;;;;;;;;;;;;;;14.92;99.10;101305.28;5030492;28;1388;-77
2023/09/16 06:59:57;;;;;;;;;;;;;;;14.98;99.29;101316.00;5015264;28;1261;-76
2023/09/16 07:02:22;;;;;;;;;;;;;;;15.05;99.47;101316.25;5031595;28;1265;-76
2023/09/16 07:04:48;;;;;;;;;;;;;;;15.13;99.36;101318.97;5012889;28;1317;-77
2023/09/16 07:07:13;;;;;;;;;;;;;;;15.22;98.66;101322.50;5013390;28;1898;-76
2023/09/16 07:09:38;;;;;;;;;;;;;;;15.29;99.18;101319.19;5030684;28;1062;-76
2023/09/16 07:12:05;;;;;;;;;;;;;;;15.38;98.92;101315.72;5012660;28;1258;-76
2023/09/16 07:14:30;;;;;;;;;;;;;;;15.50;99.23;101325.97;5010318;28;1950;-76
2023/09/16 07:16:55;;;;;;;;;;;;;;;15.56;99.14;101320.16;5035900;28;1467;-77
2023/09/16 07:19:20;;;;;;;;;;;;;;;15.65;98.64;101314.09;5031963;28;1046;-76
2023/09/16 07:21:46;;;;;;;;;;;;;;;15.74;98.20;101313.22;5041249;28;1228;-75
2023/09/16 07:24:11;;;;;;;;;;;;;;;15.83;98.15;101312.34;5026824;28;1089;-77
2023/09/16 07:26:36;;;;;;;;;;;;;;;15.93;97.86;101318.31;5037951;28;1967;-75
2023/09/16 07:29:01;;;;;;;;;;;;;;;16.02;97.79;101311.38;5041078;28;1140;-77
2023/09/16 07:31:26;;;;;;;;;;;;;;;16.09;97.91;101316.84;5013229;28;1218;-76
2023/09/16 07:33:52;;;;;;;;;;;;;;;16.15;97.55;101317.06;5039993;28;1146;-76
2023/09/16 07:36:17;;;;;;;;;;;;;;;16.22;97.61;101317.28;5041286;28;1159;-76
2023/09/16 07:38:42;;;;;;;;;;;;;;;16.28;97.57;101311.44;5032577;28;1106;-76
2023/09/16 07:41:07;;;;;;;;;;;;;;;16.35;97.13;101320.38;5012967;28;1441;-77
2023/09/16 07:43:32;;;;;;;;;;;;;;;16.42;97.15;101325.81;5030506;28;1064;-76
2023/09/16 07:45:59;;;;;;;;;;;;;;;16.48;96.88;101316.53;5030874;28;1894;-77
2023/09/16 07:48:24;;;;;;;;;;;;;;;16.53;96.41;101314.28;5032580;28;1241;-77
2023/09/16 07:50:49;;;;;;;;;;;;;;;16.60;96.29;101310.06;5035214;28;1129;-77
2023/09/16 07:53:14;;;;;;;;;;;;;;;16.66;96.54;101318.13;5014811;28;1196;-77
2023/09/16 07:55:40;;;;;;;;;;;;;;;16.75;96.16;101326.94;5033469;28;1685;-76
2023/09/16 07:58:05;;;;;;;;;;;;;;;16.84;96.56;101333.03;5030070;28;1158;-76
2023/09/16 08:00:30;;;;;;;;;;;;;;;16.94;96.21;101329.34;5030514;28;1166;-76
2023/09/16 08:02:55;;;;;;;;;;;;;;;17.05;96.33;101319.56;5006055;28;1283;-77
2023/09/16 08:05:21;;;;;;;;;;;;;;;17.14;95.86;101329.09;5032916;28;1587;-76
2023/09/16 08:07:46;;;;;;;;;;;;;;;17.23;95.78;101330.81;5031935;28;1890;-78
2023/09/16 08:10:11;;;;;;;;;;;;;;;17.33;95.52;101334.13;5030018;28;1130;-76
2023/09/16 08:12:37;;;;;;;;;;;;;;;17.43;94.90;101334.00;5029053;28;1198;-77
2023/09/16 08:15:03;;;;;;;;;;;;;;;17.50;94.48;101341.09;5026570;28;1515;-76
2023/09/16 08:17:28;;;;;;;;;;;;;;;17.60;93.56;101346.19;5021986;28;1240;-78
2023/09/16 08:19:53;;;;;;;;;;;;;;;17.67;93.07;101343.78;5009936;28;1503;-76
2023/09/16 08:22:18;;;;;;;;;;;;;;;17.73;92.48;101351.06;5021334;28;1030;-76
2023/09/16 08:24:44;;;;;;;;;;;;;;;17.82;92.20;101344.84;5040934;28;1225;-77
2023/09/16 08:27:09;;;;;;;;;;;;;;;17.90;92.29;101344.88;5033274;28;1898;-75
2023/09/16 08:29:34;;;;;;;;;;;;;;;17.96;91.64;101336.34;5035627;28;1436;-75
2023/09/16 08:31:59;;;;;;;;;;;;;;;18.01;91.47;101349.81;5038363;28;1506;-77
2023/09/16 08:34:24;;;;;;;;;;;;;;;18.07;90.92;101342.28;5030933;28;1555;-76
2023/09/16 08:36:50;;;;;;;;;;;;;;;18.16;90.99;101342.13;5034450;28;1252;-76
2023/09/16 08:39:15;;;;;;;;;;;;;;;18.23;90.89;101342.28;5016759;28;1219;-76
2023/09/16 08:41:54;;;;;;;;;;;;;;;18.31;91.33;101342.31;5035277;28;1080;-76
2023/09/16 08:44:21;;;;;;;;;;;;;;;18.40;90.95;101343.13;5029571;28;1531;-76
2023/09/16 08:46:50;;;;;;;;;;;;;;;18.47;90.83;101342.31;5013766;28;1961;-76
2023/09/16 08:49:17;;;;;;;;;;;;;;;18.61;91.05;101345.28;5032266;28;1408;-76
2023/09/16 08:51:45;;;;;;;;;;;;;;;18.73;90.22;101338.72;5029290;28;1268;-76
2023/09/16 08:54:12;;;;;;;;;;;;;;;18.80;89.57;101334.44;5028754;28;1273;-76
2023/09/16 08:56:37;;;;;;;;;;;;;;;18.92;89.69;101340.97;5023506;28;1197;-76
2023/09/16 08:59:02;;;;;;;;;;;;;;;19.00;89.33;101340.97;5023761;28;1291;-76
2023/09/16 09:01:28;;;;;;;;;;;;;;;19.09;88.68;101342.59;5021726;28;1268;-76
2023/09/16 09:03:54;;;;;;;;;;;;;;;19.16;88.71;101349.84;5028150;28;1260;-77
2023/09/16 09:06:20;;;;;;;;;;;;;;;19.24;88.56;101349.78;5031268;28;1894;-77
2023/09/16 09:08:45;;;;;;;;;;;;;;;19.33;88.32;101351.44;5030195;28;1242;-76
2023/09/16 09:11:14;;;;;;;;;;;;;;;19.39;88.17;101345.47;5023257;28;1233;-76
2023/09/16 09:13:40;;;;;;;;;;;;;;;19.45;87.73;101344.81;5029615;28;1308;-75
2023/09/16 09:16:06;;;;;;;;;;;;;;;19.54;87.46;101354.28;5012469;28;1531;-76
2023/09/16 09:18:33;;;;;;;;;;;;;;;19.61;86.80;101359.72;5029394;28;1102;-75
2023/09/16 09:20:58;;;;;;;;;;;;;;;19.68;86.13;101360.69;5017730;28;1259;-76
2023/09/16 09:23:24;;;;;;;;;;;;;;;19.72;86.04;101355.88;5017053;28;1165;-77
2023/09/16 09:25:49;;;;;;;;;;;;;;;19.82;85.94;101364.38;5026400;28;1967;-76
2023/09/16 09:28:16;;;;;;;;;;;;;;;19.95;85.75;101367.28;5019536;28;1295;-75
2023/09/16 09:30:41;;;;;;;;;;;;;;;20.02;85.38;101362.97;5025473;28;1511;-76
2023/09/16 09:33:10;;;;;;;;;;;;;;;20.09;84.58;101363.91;5030051;28;1567;-76
2023/09/16 09:35:36;;;;;;;;;;;;;;;20.19;83.83;101361.06;5012647;28;1441;-76
2023/09/16 09:38:01;;;;;;;;;;;;;;;20.26;82.70;101358.53;5011398;28;1567;-76
2023/09/16 09:40:28;;;;;;;;;;;;;;;20.34;83.45;101367.19;5026385;28;1230;-77
2023/09/16 09:42:57;;;;;;;;;;;;;;;20.45;82.70;101360.69;5031750;28;1094;-76
2023/09/16 09:45:23;;;;;;;;;;;;;;;20.50;81.44;101366.28;5031666;28;1231;-76
2023/09/16 09:47:52;;;;;;;;;;;;;;;20.59;81.91;101365.22;5024811;28;1975;-76
2023/09/16 09:50:18;;;;;;;;;;;;;;;20.69;79.58;101365.78;5033871;28;1663;-76
2023/09/16 09:52:47;;;;;;;;;;;;;;;20.78;80.71;101369.19;5029227;28;1205;-76
2023/09/16 09:55:32;;;;;;;;;;;;;;;20.89;80.73;101370.56;5028798;28;1209;-76
2023/09/16 09:57:58;;;;;;;;;;;;;;;20.97;77.98;101373.09;5023405;28;1217;-76
2023/09/16 10:00:23;;;;;;;;;;;;;;;20.99;76.42;101376.41;5029215;28;1324;-76
2023/09/16 10:02:49;;;;;;;;;;;;;;;21.07;79.29;101368.41;5021270;28;1265;-77
2023/09/16 10:05:15;;;;;;;;;;;;;;;21.16;79.44;101367.31;5022150;28;1292;-76
2023/09/16 10:07:44;;;;;;;;;;;;;;;21.24;76.79;101373.50;5024932;28;1893;-76
2023/09/16 10:10:25;;;;;;;;;;;;;;;21.29;76.64;101376.41;5028926;28;1153;-79
2023/09/16 10:12:54;;;;;;;;;;;;;;;21.38;76.49;101375.34;5023229;28;1228;-76
2023/09/16 10:15:26;;;;;;;;;;;;;;;21.46;73.49;101364.69;5025255;28;1254;-76
2023/09/16 10:17:52;;;;;;;;;;;;;;;21.54;75.52;101369.88;5027618;28;1066;-76
2023/09/16 10:20:17;;;;;;;;;;;;;;;21.54;71.61;101369.88;5025208;28;1252;-76
2023/09/16 10:22:43;;;;;;;;;;;;;;;21.59;71.35;101372.78;5004325;28;1405;-76
2023/09/16 10:25:08;;;;;;;;;;;;;;;21.67;72.93;101370.03;5025080;28;1554;-76
2023/09/16 10:27:37;;;;;;;;;;;;;;;21.72;71.27;101372.94;5012056;28;1981;-76
2023/09/16 10:30:04;;;;;;;;;;;;;;;21.82;72.28;101377.13;5027082;28;1265;-76
2023/09/16 10:32:29;;;;;;;;;;;;;;;21.90;69.99;101377.00;5024831;28;1488;-77
2023/09/16 10:34:55;;;;;;;;;;;;;;;21.98;71.51;101374.25;5024212;28;1265;-77
2023/09/16 10:37:21;;;;;;;;;;;;;;;22.11;71.88;101373.59;5017741;28;1341;-76
2023/09/16 10:39:46;;;;;;;;;;;;;;;22.18;70.50;101367.38;5022527;28;1229;-76
2023/09/16 10:42:12;;;;;;;;;;;;;;;22.24;71.65;101369.25;5029755;28;1248;-76
2023/09/16 10:44:39;;;;;;;;;;;;;;;22.33;68.64;101371.78;5011761;28;1574;-77
2023/09/16 10:47:05;;;;;;;;;;;;;;;22.45;70.40;101372.91;5021428;28;1898;-76
2023/09/16 10:49:31;;;;;;;;;;;;;;;22.53;70.49;101370.13;5027325;28;1220;-77
2023/09/16 10:52:01;;;;;;;;;;;;;;;22.56;70.85;101364.47;5023970;28;1361;-76
2023/09/16 10:54:30;;;;;;;;;;;;;;;22.52;69.14;101363.22;5031002;28;1232;-77
2023/09/16 10:56:59;;;;;;;;;;;;;;;22.51;67.57;101367.69;5025793;28;1022;-77
2023/09/16 10:59:26;;;;;;;;;;;;;;;22.55;67.23;101357.56;5028726;28;1689;-77
2023/09/16 11:01:56;;;;;;;;;;;;;;;22.57;64.82;101355.53;5031848;28;1230;-76
2023/09/16 11:04:22;;;;;;;;;;;;;;;22.66;68.19;101348.28;5024538;28;1300;-76
2023/09/16 11:06:50;;;;;;;;;;;;;;;22.74;68.75;101351.59;5029637;28;1902;-76
2023/09/16 11:09:16;;;;;;;;;;;;;;;22.85;67.43;101355.53;5026450;28;1135;-77
2023/09/16 11:11:42;;;;;;;;;;;;;;;22.90;66.56;101345.22;5025487;28;1507;-77
2023/09/16 11:14:08;;;;;;;;;;;;;;;23.00;67.08;101360.78;5030332;28;1164;-77
2023/09/16 11:16:45;;;;;;;;;;;;;;;23.03;66.60;101347.13;5033554;28;1292;-75
2023/09/16 11:19:14;;;;;;;;;;;;;;;23.09;66.83;101349.00;5027214;28;1606;-75
2023/09/16 11:21:40;;;;;;;;;;;;;;;23.19;66.00;101348.66;5023209;28;1049;-76
2023/09/16 11:24:05;;;;;;;;;;;;;;;23.29;64.08;101343.84;5032089;28;1171;-76
2023/09/16 11:26:35;;;;;;;;;;;;;;;23.32;63.69;101344.25;5033153;28;1902;-77
2023/09/16 11:29:00;;;;;;;;;;;;;;;23.31;64.08;101342.59;5027605;28;1205;-76
2023/09/16 11:31:25;;;;;;;;;;;;;;;23.39;65.34;101343.44;5010763;28;1212;-76
2023/09/16 11:33:58;;;;;;;;;;;;;;;23.49;64.11;101343.91;5030882;28;965;-76
2023/09/16 11:36:23;;;;;;;;;;;;;;;23.51;64.60;101331.28;5026503;28;1055;-75
2023/09/16 11:38:53;;;;;;;;;;;;;;;23.55;64.64;101321.94;5010377;28;1205;-75
2023/09/16 11:41:18;;;;;;;;;;;;;;;23.55;61.61;101329.88;5028393;28;1176;-78
2023/09/16 11:43:44;;;;;;;;;;;;;;;23.51;64.55;101331.28;5031264;28;1178;-75
2023/09/16 11:46:11;;;;;;;;;;;;;;;23.49;64.02;101328.03;5040775;28;1894;-76
2023/09/16 11:48:49;;;;;;;;;;;;;;;23.48;64.76;101336.97;5024192;28;1225;-78
2023/09/16 11:51:15;;;;;;;;;;;;;;;23.53;65.21;101329.28;5010289;28;1160;-76
2023/09/16 11:53:40;;;;;;;;;;;;;;;23.59;64.56;101328.47;5028170;28;1213;-76
2023/09/16 11:56:06;;;;;;;;;;;;;;;23.63;62.85;101324.44;5030419;28;1286;-76
2023/09/16 11:58:32;;;;;;;;;;;;;;;23.68;62.42;101332.59;5032083;28;1696;-77
2023/09/16 12:00:57;;;;;;;;;;;;;;;23.75;63.49;101325.50;5028000;28;1288;-76
2023/09/16 12:03:23;;;;;;;;;;;;;;;23.83;63.39;101322.66;5025619;28;1527;-76
2023/09/16 12:05:50;;;;;;;;;;;;;;;23.81;63.04;101321.25;5029268;28;1898;-77
2023/09/16 12:08:15;;;;;;;;;;;;;;;23.81;62.79;101318.59;5013710;28;1236;-76
2023/09/16 12:10:41;;;;;;;;;;;;;;;23.82;62.38;101325.50;5031211;28;1100;-78
2023/09/16 12:13:06;;;;;;;;;;;;;;;23.77;62.14;101320.81;5027071;28;1461;-76
2023/09/16 12:15:32;;;;;;;;;;;;;;;23.79;62.58;101318.75;5033533;28;1272;-76
2023/09/16 12:17:57;;;;;;;;;;;;;;;23.82;62.20;101318.38;5014653;28;1373;-75
2023/09/16 12:20:23;;;;;;;;;;;;;;;23.90;62.66;101319.22;5029741;28;1539;-74
2023/09/16 12:22:51;;;;;;;;;;;;;;;23.90;61.72;101314.72;5029376;28;1155;-76
2023/09/16 12:25:16;;;;;;;;;;;;;;;23.89;61.34;101317.56;5031550;28;1284;-76
2023/09/16 12:27:42;;;;;;;;;;;;;;;23.84;61.84;101313.69;5034539;28;1898;-76
2023/09/16 12:30:07;;;;;;;;;;;;;;;23.92;61.85;101315.34;5031276;28;1655;-76
2023/09/16 12:32:32;;;;;;;;;;;;;;;23.94;60.79;101315.16;5031305;28;1507;-75
2023/09/16 12:35:08;;;;;;;;;;;;;;;23.98;61.06;101319.03;5024164;28;1245;-76
2023/09/16 12:37:34;;;;;;;;;;;;;;;23.99;61.35;101313.53;5021997;28;1337;-76
2023/09/16 12:40:01;;;;;;;;;;;;;;;24.08;61.53;101319.44;5027257;28;1402;-76
2023/09/16 12:42:26;;;;;;;;;;;;;;;24.09;60.49;101313.94;5006543;28;1634;-76